Time;durP1;ratioP1;P1;durP2;ratioP2;P2;SDS_P1;SDS_P2;PMS_P1;PMS_P2;Temp;Humidity;BMP_temperature;BMP_pressure;BME280_temperature;BME280_humidity;BME280_pressure;Samples;Min_cycle;Max_cycle;Signal;HPM_P1;HPM_P2
2022/12/02 04:46:48;;;;;;;;;;;;;;;8.35;58.45;96899.78;4243375;27;10410;-65
2022/12/02 04:48:51;;;;;;;;;;;;;;;8.63;58.04;96904.50;4228892;28;5850;-65
2022/12/02 04:50:54;;;;;;;;;;;;;;;8.87;57.73;96906.09;4230014;27;5742;-65
2022/12/02 04:52:56;;;;;;;;;;;;;;;9.04;57.38;96897.00;4229056;27;5675;-65
2022/12/02 04:54:59;;;;;;;;;;;;;;;9.19;57.17;96905.78;4227500;27;5686;-65
2022/12/02 04:57:02;;;;;;;;;;;;;;;9.30;56.66;96897.41;4232135;27;5702;-65
2022/12/02 04:59:05;;;;;;;;;;;;;;;9.42;56.99;96894.31;4229554;28;5780;-65
2022/12/02 05:01:07;;;;;;;;;;;;;;;9.47;56.70;96892.75;4228311;28;5789;-65
2022/12/02 05:03:11;;;;;;;;;;;;;;;9.55;56.62;96889.19;4227567;28;5769;-65
2022/12/02 05:05:14;;;;;;;;;;;;;;;9.60;56.35;96884.97;4230677;28;5746;-65
2022/12/02 05:07:17;;;;;;;;;;;;;;;9.65;56.51;96887.09;4229707;28;5655;-65
2022/12/02 05:09:20;;;;;;;;;;;;;;;9.71;56.18;96885.53;4229183;28;5684;-65
2022/12/02 05:11:22;;;;;;;;;;;;;;;9.76;56.08;96893.72;4231085;28;5651;-65
2022/12/02 05:13:25;;;;;;;;;;;;;;;9.75;56.49;96892.91;4227439;27;5674;-65
2022/12/02 05:15:28;;;;;;;;;;;;;;;9.76;56.18;96891.88;4223471;28;5823;-65
2022/12/02 05:17:31;;;;;;;;;;;;;;;9.74;56.33;96893.91;4231432;28;5699;-65
2022/12/02 05:19:35;;;;;;;;;;;;;;;9.72;56.32;96890.59;4231441;28;5785;-65
2022/12/02 05:21:37;;;;;;;;;;;;;;;9.75;55.96;96892.91;4229790;28;5742;-64
2022/12/02 05:23:40;;;;;;;;;;;;;;;9.80;56.04;96892.34;4230569;28;5387;-66
2022/12/02 05:25:43;;;;;;;;;;;;;;;9.80;56.11;96882.59;4230130;28;7384;-65
2022/12/02 05:27:45;;;;;;;;;;;;;;;9.82;55.75;96891.13;4228934;28;6316;-65
2022/12/02 05:29:48;;;;;;;;;;;;;;;9.84;55.63;96889.13;4230926;27;5891;-66
2022/12/02 05:31:51;;;;;;;;;;;;;;;9.84;55.58;96893.59;4225920;28;5870;-66
2022/12/02 05:33:55;;;;;;;;;;;;;;;9.85;55.48;96890.78;4230524;28;5656;-66
2022/12/02 05:35:59;;;;;;;;;;;;;;;9.85;55.75;96884.66;4229231;28;5660;-65
2022/12/02 05:38:01;;;;;;;;;;;;;;;9.84;55.37;96899.69;4230273;28;5675;-66
2022/12/02 05:40:09;;;;;;;;;;;;;;;9.84;55.49;96890.94;4228628;28;5790;-66
2022/12/02 05:42:13;;;;;;;;;;;;;;;9.85;55.44;96892.56;4224932;28;6812;-66
2022/12/02 05:44:20;;;;;;;;;;;;;;;9.86;55.02;96892.41;4227308;28;5683;-66
2022/12/02 05:46:23;;;;;;;;;;;;;;;9.85;55.08;96893.44;4220173;28;5780;-66
2022/12/02 05:48:26;;;;;;;;;;;;;;;9.87;55.40;96896.69;4212841;28;5108;-66
2022/12/02 05:50:32;;;;;;;;;;;;;;;9.88;55.39;96895.69;4213004;28;5866;-66
2022/12/02 05:52:36;;;;;;;;;;;;;;;9.90;55.25;96893.69;4216394;28;5667;-66
2022/12/02 05:54:41;;;;;;;;;;;;;;;9.92;55.00;96899.59;4217646;28;5802;-66
2022/12/02 05:56:44;;;;;;;;;;;;;;;9.92;55.01;96896.94;4217137;28;5794;-66
2022/12/02 05:58:47;;;;;;;;;;;;;;;9.91;55.16;96892.66;4215166;28;5696;-66
2022/12/02 06:00:56;;;;;;;;;;;;;;;9.90;54.88;96898.97;4207195;28;5674;-66
2022/12/02 06:03:02;;;;;;;;;;;;;;;9.90;54.75;96901.59;4215104;28;5855;-66
2022/12/02 06:05:13;;;;;;;;;;;;;;;9.91;55.01;96903.22;4215683;28;5667;-66
2022/12/02 06:07:16;;;;;;;;;;;;;;;9.92;54.87;96904.88;4213756;28;5657;-66
2022/12/02 06:09:23;;;;;;;;;;;;;;;9.93;54.75;96901.22;4218910;28;5689;-66
2022/12/02 06:11:29;;;;;;;;;;;;;;;9.91;54.79;96911.16;4219113;28;5667;-66
2022/12/02 06:13:35;;;;;;;;;;;;;;;9.92;54.57;96902.22;4218821;28;5675;-66
2022/12/02 06:15:38;;;;;;;;;;;;;;;9.95;54.52;96910.78;4217642;28;5684;-66
2022/12/02 06:17:41;;;;;;;;;;;;;;;9.95;54.37;96916.06;4217548;28;5674;-66
2022/12/02 06:19:45;;;;;;;;;;;;;;;9.95;54.52;96906.31;4217342;28;5687;-66
2022/12/02 06:21:48;;;;;;;;;;;;;;;9.97;54.33;96919.34;4215072;28;5667;-65
2022/12/02 06:23:55;;;;;;;;;;;;;;;9.96;54.35;96907.13;4214782;28;5671;-65
2022/12/02 06:26:00;;;;;;;;;;;;;;;9.97;54.68;96911.44;4213151;28;5810;-65
2022/12/02 06:28:12;;;;;;;;;;;;;;;9.99;54.04;96914.69;4215302;28;6470;-65
2022/12/02 06:30:15;;;;;;;;;;;;;;;10.00;54.32;96908.41;4214565;28;5653;-65
2022/12/02 06:32:21;;;;;;;;;;;;;;;10.01;53.91;96912.69;4217641;28;5186;-65
2022/12/02 06:34:34;;;;;;;;;;;;;;;10.03;54.05;96913.31;4213331;28;5735;-65
2022/12/02 06:36:37;;;;;;;;;;;;;;;10.03;53.77;96910.66;4218802;28;5687;-65
2022/12/02 06:38:46;;;;;;;;;;;;;;;10.03;53.84;96916.75;4209937;28;5675;-65
2022/12/02 06:40:49;;;;;;;;;;;;;;;10.03;53.74;96914.13;4210941;28;5668;-65
2022/12/02 06:42:53;;;;;;;;;;;;;;;10.03;53.79;96910.66;4215462;28;5089;-65
2022/12/02 06:45:08;;;;;;;;;;;;;;;10.04;53.55;96920.22;4218659;28;5840;-65
2022/12/02 06:47:46;;;;;;;;;;;;;;;10.03;54.08;96918.59;4218659;28;5699;-65
2022/12/02 06:49:49;;;;;;;;;;;;;;;10.02;53.79;96906.38;4216624;28;5787;-66
2022/12/02 06:51:55;;;;;;;;;;;;;;;10.04;53.97;96909.66;4218571;28;5699;-65
2022/12/02 06:53:58;;;;;;;;;;;;;;;10.04;53.64;96909.66;4212400;28;5689;-65
2022/12/02 06:56:05;;;;;;;;;;;;;;;10.02;53.49;96904.56;4218777;28;5675;-65
2022/12/02 06:58:25;;;;;;;;;;;;;;;10.02;53.72;96907.22;4217620;28;5667;-63
2022/12/02 07:00:28;;;;;;;;;;;;;;;10.03;53.58;96908.84;4217692;28;5667;-65
2022/12/02 07:02:32;;;;;;;;;;;;;;;10.02;53.62;96901.94;4218308;28;5801;-65
2022/12/02 07:04:43;;;;;;;;;;;;;;;10.02;53.42;96909.03;4216150;28;5758;-63
2022/12/02 07:06:50;;;;;;;;;;;;;;;10.03;53.68;96905.38;4218452;28;5806;-64
2022/12/02 07:08:55;;;;;;;;;;;;;;;10.04;53.35;96904.38;4217879;28;7690;-64
2022/12/02 07:10:58;;;;;;;;;;;;;;;10.03;53.37;96903.56;4216363;28;6378;-64
2022/12/02 07:13:06;;;;;;;;;;;;;;;10.04;53.11;96909.66;4212172;28;5700;-64
2022/12/02 07:15:27;;;;;;;;;;;;;;;10.03;53.15;96910.66;4218242;28;5671;-64
2022/12/02 07:17:32;;;;;;;;;;;;;;;10.03;53.00;96908.84;4208271;28;5761;-64
2022/12/02 07:19:38;;;;;;;;;;;;;;;10.01;53.06;96904.75;4218350;28;5667;-65
2022/12/02 07:21:42;;;;;;;;;;;;;;;10.00;53.05;96905.75;4216890;28;5777;-64
2022/12/02 07:23:44;;;;;;;;;;;;;;;9.98;53.29;96903.31;4201990;28;5756;-65
2022/12/02 07:25:48;;;;;;;;;;;;;;;9.96;53.06;96902.66;4207167;28;5763;-64
2022/12/02 07:27:51;;;;;;;;;;;;;;;9.92;53.28;96899.59;4217397;28;5777;-64
2022/12/02 07:29:55;;;;;;;;;;;;;;;9.91;53.19;96890.03;4218155;28;5730;-64
2022/12/02 07:31:59;;;;;;;;;;;;;;;9.95;52.96;96892.28;4215311;28;5699;-66
2022/12/02 07:34:02;;;;;;;;;;;;;;;9.96;53.16;96886.81;4217533;28;5826;-66
2022/12/02 07:36:05;;;;;;;;;;;;;;;9.99;53.16;96890.94;4217571;28;5077;-65
2022/12/02 07:38:08;;;;;;;;;;;;;;;10.01;53.13;96894.19;4217808;28;5637;-66
2022/12/02 07:40:12;;;;;;;;;;;;;;;10.03;52.95;96886.91;4217782;28;5666;-66
2022/12/02 07:42:15;;;;;;;;;;;;;;;10.05;52.97;96895.44;4211405;28;5727;-65
2022/12/02 07:44:17;;;;;;;;;;;;;;;10.06;52.85;96897.06;4213830;28;5781;-63
2022/12/02 07:46:20;;;;;;;;;;;;;;;10.06;53.13;96892.63;4217081;28;5745;-65
2022/12/02 07:48:25;;;;;;;;;;;;;;;10.08;52.88;96900.34;4217540;28;5692;-65
2022/12/02 07:50:27;;;;;;;;;;;;;;;10.08;53.08;96895.06;4214315;28;5659;-65
2022/12/02 07:52:30;;;;;;;;;;;;;;;10.08;52.76;96895.91;4217212;28;5646;-65
2022/12/02 07:54:33;;;;;;;;;;;;;;;10.05;52.96;96896.25;4215042;28;5762;-65
2022/12/02 07:56:38;;;;;;;;;;;;;;;10.06;52.96;96895.25;4215635;28;5667;-65
2022/12/02 07:58:41;;;;;;;;;;;;;;;10.02;52.84;96891.34;4213116;28;5689;-65
2022/12/02 08:01:04;;;;;;;;;;;;;;;10.04;52.63;96891.16;4200899;28;5708;-65
2022/12/02 08:03:07;;;;;;;;;;;;;;;10.06;52.74;96892.63;4212150;28;5674;-66
2022/12/02 08:05:11;;;;;;;;;;;;;;;10.04;52.74;96889.34;4214098;28;5660;-65
2022/12/02 08:07:14;;;;;;;;;;;;;;;10.07;52.63;96893.44;4213967;28;5651;-65
2022/12/02 08:09:17;;;;;;;;;;;;;;;10.08;52.88;96887.13;4214047;28;5688;-65
2022/12/02 08:11:20;;;;;;;;;;;;;;;10.10;52.78;96890.44;4212234;28;5831;-65
2022/12/02 08:13:23;;;;;;;;;;;;;;;10.12;52.96;96891.06;4211371;28;5689;-65
2022/12/02 08:15:26;;;;;;;;;;;;;;;10.12;52.74;96889.22;4214779;28;5996;-65
2022/12/02 08:17:29;;;;;;;;;;;;;;;10.13;52.72;96884.78;4217266;28;5664;-65
2022/12/02 08:19:32;;;;;;;;;;;;;;;10.14;52.66;96889.84;4217258;28;5663;-65
2022/12/02 08:21:39;;;;;;;;;;;;;;;10.16;52.43;96889.66;4217159;28;5676;-66
2022/12/02 08:23:41;;;;;;;;;;;;;;;10.18;52.77;96898.22;4215758;28;5671;-66
2022/12/02 08:25:44;;;;;;;;;;;;;;;10.16;52.71;96890.47;4216863;28;5679;-65
2022/12/02 08:27:47;;;;;;;;;;;;;;;10.17;52.55;96899.22;4212904;28;5683;-65
2022/12/02 08:29:51;;;;;;;;;;;;;;;10.16;52.78;96897.59;4217426;28;5695;-66
2022/12/02 08:31:54;;;;;;;;;;;;;;;10.16;52.42;96897.59;4216199;28;5790;-64
2022/12/02 08:33:59;;;;;;;;;;;;;;;10.18;52.42;96898.22;4217246;28;5667;-64
2022/12/02 08:36:09;;;;;;;;;;;;;;;10.18;52.80;96900.84;4216942;28;5770;-64
2022/12/02 08:38:13;;;;;;;;;;;;;;;10.18;52.43;96901.69;4213313;28;5799;-64
2022/12/02 08:40:16;;;;;;;;;;;;;;;10.17;52.38;96899.22;4213303;28;5742;-64
2022/12/02 08:42:19;;;;;;;;;;;;;;;10.18;52.79;96906.16;4213707;28;5659;-65
2022/12/02 08:44:22;;;;;;;;;;;;;;;10.19;52.56;96895.41;4217324;28;5659;-65
2022/12/02 08:46:25;;;;;;;;;;;;;;;10.20;52.72;96899.69;4216495;28;5692;-65
2022/12/02 08:48:28;;;;;;;;;;;;;;;10.19;52.30;96895.41;4216978;28;5668;-65
2022/12/02 08:50:31;;;;;;;;;;;;;;;10.17;52.57;96902.69;4216845;28;5777;-65
2022/12/02 08:52:33;;;;;;;;;;;;;;;10.17;52.71;96894.75;4216659;28;5894;-65
2022/12/02 08:54:39;;;;;;;;;;;;;;;10.20;52.39;96898.88;4216968;28;5734;-65
2022/12/02 08:56:42;;;;;;;;;;;;;;;10.21;52.67;96900.50;4217006;28;6539;-66
2022/12/02 08:58:45;;;;;;;;;;;;;;;10.23;52.36;96900.34;4209020;28;5746;-65
2022/12/02 09:00:48;;;;;;;;;;;;;;;10.24;52.85;96900.16;4216275;28;5663;-65
2022/12/02 09:02:51;;;;;;;;;;;;;;;10.24;52.65;96894.88;4215480;28;5675;-65
2022/12/02 09:04:54;;;;;;;;;;;;;;;10.28;52.34;96895.31;4216834;28;5671;-65
2022/12/02 09:06:57;;;;;;;;;;;;;;;10.31;52.71;96892.31;4216521;28;5761;-65
2022/12/02 09:09:00;;;;;;;;;;;;;;;10.33;52.41;96896.38;4217022;28;5667;-65
2022/12/02 09:11:04;;;;;;;;;;;;;;;10.35;52.38;96901.47;4217386;28;5770;-65
2022/12/02 09:13:07;;;;;;;;;;;;;;;10.37;52.44;96889.72;4217150;28;5671;-66
2022/12/02 09:15:11;;;;;;;;;;;;;;;10.39;52.37;96898.25;4216916;28;5659;-66
2022/12/02 09:17:13;;;;;;;;;;;;;;;10.41;52.23;96895.41;4216821;28;5679;-65
2022/12/02 09:19:16;;;;;;;;;;;;;;;10.38;52.46;96899.28;4215818;28;5671;-65
2022/12/02 09:21:19;;;;;;;;;;;;;;;10.37;52.39;96900.28;4217027;28;5707;-65
2022/12/02 09:23:22;;;;;;;;;;;;;;;10.37;52.42;96895.00;4218982;28;5720;-65
2022/12/02 09:25:26;;;;;;;;;;;;;;;10.34;52.49;96892.72;4220165;28;5670;-66
2022/12/02 09:27:30;;;;;;;;;;;;;;;10.38;52.21;96896.63;4220041;28;5751;-65
2022/12/02 09:29:33;;;;;;;;;;;;;;;10.36;52.68;96896.00;4220135;28;5770;-65
2022/12/02 09:31:43;;;;;;;;;;;;;;;10.35;52.22;96897.00;4219748;28;5696;-65
2022/12/02 09:33:49;;;;;;;;;;;;;;;10.36;52.47;96898.66;4212220;28;5656;-66
2022/12/02 09:35:52;;;;;;;;;;;;;;;10.37;52.43;96895.00;4219585;28;5916;-65
2022/12/02 09:37:55;;;;;;;;;;;;;;;10.40;52.36;96905.19;4219646;28;5815;-65
2022/12/02 09:39:58;;;;;;;;;;;;;;;10.37;52.31;96888.88;4220292;28;5679;-65
2022/12/02 09:42:01;;;;;;;;;;;;;;;10.38;52.43;96896.63;4219568;28;5830;-64
2022/12/02 09:44:05;;;;;;;;;;;;;;;10.39;52.25;96892.97;4219771;28;5069;-65
2022/12/02 09:46:08;;;;;;;;;;;;;;;10.37;52.43;96889.72;4219135;28;7698;-65
2022/12/02 09:48:12;;;;;;;;;;;;;;;10.35;52.29;96894.38;4219771;28;5643;-66
2022/12/02 09:50:16;;;;;;;;;;;;;;;10.36;52.23;96888.06;4219837;28;5759;-65
2022/12/02 09:52:23;;;;;;;;;;;;;;;10.36;52.42;96887.25;4219445;28;5672;-65
2022/12/02 09:54:28;;;;;;;;;;;;;;;10.37;52.11;96884.41;4219647;28;5997;-65
2022/12/02 09:56:31;;;;;;;;;;;;;;;10.39;52.24;96881.59;4219883;28;5834;-65
2022/12/02 09:58:33;;;;;;;;;;;;;;;10.39;52.18;96877.13;4219387;28;5750;-65
2022/12/02 10:00:37;;;;;;;;;;;;;;;10.41;52.40;96885.66;4219588;28;5726;-65
2022/12/02 10:02:43;;;;;;;;;;;;;;;10.40;52.08;96878.75;4219350;28;5792;-65
2022/12/02 10:04:46;;;;;;;;;;;;;;;10.42;52.22;96875.94;4211212;28;5715;-66
2022/12/02 10:06:49;;;;;;;;;;;;;;;10.44;52.14;96879.22;4218992;28;5779;-65
2022/12/02 10:08:52;;;;;;;;;;;;;;;10.46;52.28;96879.81;4219463;28;5773;-65
2022/12/02 10:10:56;;;;;;;;;;;;;;;10.48;52.26;96875.97;4219231;28;5765;-66
2022/12/02 10:12:59;;;;;;;;;;;;;;;10.49;51.87;96874.16;4219107;28;5664;-64
2022/12/02 10:15:13;;;;;;;;;;;;;;;10.52;51.82;96872.94;4219095;28;6360;-65
2022/12/02 10:17:19;;;;;;;;;;;;;;;10.51;51.91;96869.50;4219355;28;5675;-65
2022/12/02 10:19:21;;;;;;;;;;;;;;;10.53;51.92;96866.66;4219173;28;5663;-64
2022/12/02 10:21:24;;;;;;;;;;;;;;;10.55;51.89;96862.00;4218724;28;5757;-65
2022/12/02 10:23:28;;;;;;;;;;;;;;;10.55;51.93;96865.47;4219050;28;5704;-65
2022/12/02 10:25:31;;;;;;;;;;;;;;;10.56;52.23;96861.81;4219388;28;6617;-64
2022/12/02 10:27:36;;;;;;;;;;;;;;;10.59;51.75;96850.03;4219212;28;5671;-64
2022/12/02 10:29:39;;;;;;;;;;;;;;;10.61;51.73;96859.41;4219044;28;6384;-65
2022/12/02 10:31:53;;;;;;;;;;;;;;;10.62;51.80;96861.03;4219037;28;5773;-65
2022/12/02 10:34:00;;;;;;;;;;;;;;;10.63;51.81;96849.44;4212767;28;5825;-65
2022/12/02 10:36:03;;;;;;;;;;;;;;;10.64;51.58;96847.63;4218992;28;5774;-65
2022/12/02 10:38:27;;;;;;;;;;;;;;;10.63;51.88;96851.28;4218701;28;5667;-65
2022/12/02 10:40:30;;;;;;;;;;;;;;;10.61;51.75;96858.59;4219217;28;5771;-65
2022/12/02 10:42:33;;;;;;;;;;;;;;;10.58;52.12;96849.22;4218716;28;6472;-65
2022/12/02 10:44:38;;;;;;;;;;;;;;;10.59;52.13;96850.03;4218434;28;5730;-65
2022/12/02 10:46:41;;;;;;;;;;;;;;;10.58;52.07;96843.94;4218883;28;5671;-65
2022/12/02 10:48:44;;;;;;;;;;;;;;;10.60;51.99;96844.56;4218861;28;5752;-65
2022/12/02 10:50:48;;;;;;;;;;;;;;;10.64;51.71;96843.16;4210765;28;5732;-65
2022/12/02 10:52:53;;;;;;;;;;;;;;;10.67;51.66;96834.88;4217490;28;6478;-65
2022/12/02 10:54:58;;;;;;;;;;;;;;;10.67;51.79;96836.69;4211105;28;5813;-65
2022/12/02 10:57:03;;;;;;;;;;;;;;;10.67;51.76;96837.50;4218172;28;5887;-64
2022/12/02 10:59:09;;;;;;;;;;;;;;;10.66;51.91;96830.59;4217385;28;5750;-65
2022/12/02 11:01:12;;;;;;;;;;;;;;;10.69;51.88;96837.31;4218732;28;5671;-64
2022/12/02 11:03:15;;;;;;;;;;;;;;;10.72;51.92;96826.34;4217110;28;5668;-65
2022/12/02 11:05:21;;;;;;;;;;;;;;;10.73;51.65;96825.31;4218467;28;5758;-64
2022/12/02 11:07:25;;;;;;;;;;;;;;;10.71;51.75;96827.34;4209936;28;5766;-64
2022/12/02 11:09:28;;;;;;;;;;;;;;;10.72;51.72;96827.16;4218248;28;5751;-64
2022/12/02 11:11:42;;;;;;;;;;;;;;;10.73;51.90;96820.84;4218249;28;5656;-64
2022/12/02 11:13:54;;;;;;;;;;;;;;;10.75;51.64;96823.31;4217805;28;5695;-64
2022/12/02 11:16:35;;;;;;;;;;;;;;;10.75;51.72;96820.66;4218319;28;5719;-64
2022/12/02 11:19:04;;;;;;;;;;;;;;;10.75;51.82;96812.72;4209727;28;5901;-64
2022/12/02 11:21:38;;;;;;;;;;;;;;;10.74;51.76;96813.75;4217371;28;5672;-64
2022/12/02 11:23:42;;;;;;;;;;;;;;;10.76;51.44;96809.91;4209117;28;5830;-64
2022/12/02 11:25:59;;;;;;;;;;;;;;;10.77;51.52;96805.44;4210192;28;5094;-65
2022/12/02 11:28:15;;;;;;;;;;;;;;;10.76;51.35;96798.53;4217993;28;7695;-65
2022/12/02 11:30:37;;;;;;;;;;;;;;;10.78;51.46;96812.34;4215679;28;5888;-65
2022/12/02 11:32:49;;;;;;;;;;;;;;;10.78;51.69;96807.06;4217336;28;5676;-65
2022/12/02 11:34:54;;;;;;;;;;;;;;;10.80;51.21;96802.41;4217044;28;5683;-65
2022/12/02 11:37:37;;;;;;;;;;;;;;;10.81;51.54;96803.22;4214000;28;5700;-65
2022/12/02 11:39:42;;;;;;;;;;;;;;;10.81;51.22;96797.94;4216909;28;5667;-65
2022/12/02 11:42:19;;;;;;;;;;;;;;;10.77;51.66;96797.50;4217946;28;5129;-64
2022/12/02 11:44:24;;;;;;;;;;;;;;;10.75;51.51;96788.94;4165334;28;5779;-64
2022/12/02 11:46:43;;;;;;;;;;;;;;;10.73;51.25;96785.66;4165901;28;5847;-64
2022/12/02 11:48:48;;;;;;;;;;;;;;;10.74;51.36;96779.38;4150012;28;6478;-64
2022/12/02 11:50:50;;;;;;;;;;;;;;;10.77;51.69;96786.94;4165335;28;5771;-64
2022/12/02 11:52:56;;;;;;;;;;;;;;;10.79;51.60;96774.31;4164547;28;5896;-65
2022/12/02 11:55:13;;;;;;;;;;;;;;;10.82;51.32;96776.56;4166033;28;6457;-64
2022/12/02 11:57:21;;;;;;;;;;;;;;;10.79;51.30;96774.31;4148260;28;5809;-64
2022/12/02 11:59:26;;;;;;;;;;;;;;;10.80;51.48;96770.66;4165611;28;5726;-64
2022/12/02 12:01:29;;;;;;;;;;;;;;;10.82;51.20;96770.47;4165361;28;5120;-64
2022/12/02 12:03:32;;;;;;;;;;;;;;;10.81;51.46;96760.91;4165635;28;5825;-65
2022/12/02 12:05:35;;;;;;;;;;;;;;;10.79;51.34;96756.63;4164424;28;5846;-64
2022/12/02 12:07:46;;;;;;;;;;;;;;;10.80;51.32;96757.44;4164689;28;5769;-64
2022/12/02 12:09:57;;;;;;;;;;;;;;;10.81;51.19;96756.44;4142532;28;5788;-65
2022/12/02 12:12:12;;;;;;;;;;;;;;;10.84;51.43;96755.22;4165371;28;5735;-65
2022/12/02 12:14:23;;;;;;;;;;;;;;;10.84;51.62;96748.09;4165416;28;5312;-65
2022/12/02 12:16:26;;;;;;;;;;;;;;;10.86;51.42;96751.34;4165150;28;7720;-64
2022/12/02 12:18:45;;;;;;;;;;;;;;;10.85;51.02;96752.38;4165249;28;7242;-64
2022/12/02 12:20:48;;;;;;;;;;;;;;;10.85;51.34;96747.09;4195240;28;5813;-64
2022/12/02 12:22:51;;;;;;;;;;;;;;;10.86;51.30;96748.72;4213250;28;5883;-65
2022/12/02 12:24:54;;;;;;;;;;;;;;;10.86;51.35;96743.44;4217488;28;6713;-65
2022/12/02 12:26:58;;;;;;;;;;;;;;;10.89;51.49;96747.53;4217041;28;5671;-65
2022/12/02 12:29:05;;;;;;;;;;;;;;;10.88;51.23;96744.06;4216706;28;6376;-65
2022/12/02 12:31:08;;;;;;;;;;;;;;;10.89;51.35;96743.06;4216838;28;5706;-65
2022/12/02 12:33:11;;;;;;;;;;;;;;;10.91;51.21;96738.38;4217095;28;5675;-65
2022/12/02 12:35:13;;;;;;;;;;;;;;;10.89;51.07;96737.75;4216591;28;5667;-64
2022/12/02 12:37:16;;;;;;;;;;;;;;;10.90;51.47;96725.34;4216509;28;5805;-65
2022/12/02 12:39:19;;;;;;;;;;;;;;;10.92;51.42;96726.78;4215096;28;5727;-65
2022/12/02 12:41:21;;;;;;;;;;;;;;;10.89;51.12;96718.44;4210122;28;5666;-65
2022/12/02 12:43:44;;;;;;;;;;;;;;;10.93;51.25;96720.47;4216860;28;5770;-65
2022/12/02 12:45:48;;;;;;;;;;;;;;;10.94;51.34;96719.47;4216878;28;5683;-64
2022/12/02 12:47:51;;;;;;;;;;;;;;;10.95;51.37;96718.44;4216607;28;5790;-65
2022/12/02 12:49:54;;;;;;;;;;;;;;;10.95;51.43;96718.44;4215425;28;5917;-65
2022/12/02 12:51:59;;;;;;;;;;;;;;;10.94;51.26;96718.66;4216327;28;5675;-65
2022/12/02 12:54:03;;;;;;;;;;;;;;;10.95;51.24;96715.81;4216767;28;5774;-65
2022/12/02 12:56:06;;;;;;;;;;;;;;;10.91;51.09;96711.94;4212932;28;5671;-65
2022/12/02 12:58:09;;;;;;;;;;;;;;;10.89;51.10;96703.38;4219764;28;5630;-65
2022/12/02 13:00:13;;;;;;;;;;;;;;;10.87;51.19;96702.75;4220156;28;6394;-65
2022/12/02 13:02:17;;;;;;;;;;;;;;;10.87;51.07;96696.63;4218674;28;5699;-65
2022/12/02 13:04:21;;;;;;;;;;;;;;;10.86;50.98;96693.19;4219677;28;6482;-65
2022/12/02 13:06:27;;;;;;;;;;;;;;;10.88;51.32;96690.38;4219654;28;5634;-64
2022/12/02 13:08:30;;;;;;;;;;;;;;;10.89;51.26;96692.00;4219738;28;5679;-64
2022/12/02 13:10:33;;;;;;;;;;;;;;;10.86;50.93;96687.88;4219986;28;5766;-65
2022/12/02 13:12:36;;;;;;;;;;;;;;;10.88;50.80;96688.53;4217792;28;5515;-65
2022/12/02 13:14:38;;;;;;;;;;;;;;;10.87;51.36;96686.88;4218964;28;7000;-65
2022/12/02 13:16:41;;;;;;;;;;;;;;;10.86;50.81;96679.94;4220009;28;5762;-65
2022/12/02 13:18:46;;;;;;;;;;;;;;;10.86;50.68;96682.59;4219524;28;6457;-65
2022/12/02 13:20:49;;;;;;;;;;;;;;;10.87;50.98;96678.13;4211862;28;5749;-65
2022/12/02 13:22:52;;;;;;;;;;;;;;;10.89;50.92;96676.94;4219459;28;5656;-65
2022/12/02 13:24:54;;;;;;;;;;;;;;;10.91;51.09;96668.81;4219730;28;5655;-64
2022/12/02 13:26:58;;;;;;;;;;;;;;;10.88;50.71;96670.03;4219775;28;5668;-65
2022/12/02 13:29:00;;;;;;;;;;;;;;;10.88;50.90;96670.03;4219676;28;5730;-65
2022/12/02 13:31:03;;;;;;;;;;;;;;;10.87;51.00;96665.72;4215675;28;5081;-65
2022/12/02 13:33:06;;;;;;;;;;;;;;;10.88;50.74;96672.66;4219346;28;5678;-65
2022/12/02 13:35:11;;;;;;;;;;;;;;;10.89;50.75;96676.94;4218097;28;5738;-65
2022/12/02 13:37:17;;;;;;;;;;;;;;;10.91;50.78;96677.56;4219444;28;5663;-65
2022/12/02 13:39:20;;;;;;;;;;;;;;;10.93;50.94;96677.34;4220112;28;5848;-65
2022/12/02 13:41:23;;;;;;;;;;;;;;;10.93;50.83;96678.16;4215083;28;6337;-65
2022/12/02 13:43:26;;;;;;;;;;;;;;;10.93;50.89;96675.50;4218684;28;5818;-65
2022/12/02 13:45:29;;;;;;;;;;;;;;;10.91;50.78;96672.25;4212440;28;5689;-65
2022/12/02 13:47:32;;;;;;;;;;;;;;;10.90;50.63;96675.91;4216974;28;5748;-64
2022/12/02 13:49:34;;;;;;;;;;;;;;;10.90;50.65;96672.47;4217458;28;5659;-65
2022/12/02 13:51:39;;;;;;;;;;;;;;;10.90;50.84;96673.28;4218344;28;5186;-65
2022/12/02 13:53:43;;;;;;;;;;;;;;;10.90;50.89;96670.63;4219399;28;5762;-64
2022/12/02 13:55:46;;;;;;;;;;;;;;;10.87;50.87;96665.72;4211110;28;5756;-65
2022/12/02 13:57:48;;;;;;;;;;;;;;;10.89;50.83;96669.00;4219403;28;5642;-64
2022/12/02 13:59:51;;;;;;;;;;;;;;;10.88;50.48;96663.91;4219236;28;5746;-62
2022/12/02 14:01:54;;;;;;;;;;;;;;;10.90;50.98;96672.47;4219227;28;6173;-63
2022/12/02 14:03:57;;;;;;;;;;;;;;;10.89;50.58;96669.00;4219130;28;5781;-63
2022/12/02 14:05:59;;;;;;;;;;;;;;;10.88;50.49;96670.03;4218574;28;5762;-63
2022/12/02 14:08:04;;;;;;;;;;;;;;;10.89;50.62;96665.53;4218180;28;5817;-64
2022/12/02 14:10:08;;;;;;;;;;;;;;;10.89;50.85;96671.66;4219144;28;5773;-64
2022/12/02 14:12:12;;;;;;;;;;;;;;;10.92;50.88;96671.25;4219526;28;5680;-64
2022/12/02 14:14:14;;;;;;;;;;;;;;;10.92;50.57;96670.44;4219152;28;5679;-64
2022/12/02 14:16:17;;;;;;;;;;;;;;;10.93;50.64;96666.78;4218903;28;5726;-63
2022/12/02 14:18:20;;;;;;;;;;;;;;;10.92;50.67;96670.44;4219006;28;5667;-63
2022/12/02 14:20:23;;;;;;;;;;;;;;;10.94;50.89;96663.09;4218349;28;5694;-64
2022/12/02 14:22:26;;;;;;;;;;;;;;;10.94;50.77;96666.56;4207690;28;5679;-64
2022/12/02 14:24:30;;;;;;;;;;;;;;;10.94;50.95;96669.22;4219054;28;5664;-64
2022/12/02 14:26:33;;;;;;;;;;;;;;;10.94;50.84;96666.56;4219269;28;5844;-64
2022/12/02 14:28:35;;;;;;;;;;;;;;;10.94;50.54;96663.91;4218758;28;5751;-65
2022/12/02 14:30:38;;;;;;;;;;;;;;;10.94;50.51;96668.41;4217389;28;5668;-65
2022/12/02 14:32:41;;;;;;;;;;;;;;;10.96;50.53;96672.47;4217924;28;5069;-65
2022/12/02 14:34:44;;;;;;;;;;;;;;;10.96;50.51;96669.00;4217339;28;6881;-65
2022/12/02 14:36:47;;;;;;;;;;;;;;;10.92;50.28;96663.31;4216189;28;5668;-65
2022/12/02 14:38:49;;;;;;;;;;;;;;;10.93;50.44;96666.78;4215785;28;5660;-66
2022/12/02 14:40:54;;;;;;;;;;;;;;;10.93;50.44;96656.19;4216454;28;5814;-65
2022/12/02 14:42:57;;;;;;;;;;;;;;;10.93;50.37;96657.00;4217250;28;5802;-65
2022/12/02 14:45:00;;;;;;;;;;;;;;;10.92;50.41;96652.72;4213650;28;5667;-66
2022/12/02 14:47:02;;;;;;;;;;;;;;;10.92;50.34;96650.09;4218216;28;5760;-65
2022/12/02 14:49:05;;;;;;;;;;;;;;;10.93;50.54;96650.91;4217251;28;5850;-65
2022/12/02 14:51:28;;;;;;;;;;;;;;;10.93;50.62;96651.72;4212786;28;5680;-65
2022/12/02 14:53:31;;;;;;;;;;;;;;;10.95;50.60;96654.97;4214431;28;5860;-65
2022/12/02 14:55:34;;;;;;;;;;;;;;;10.97;50.33;96645.00;4211461;28;5769;-64
2022/12/02 14:57:38;;;;;;;;;;;;;;;10.97;50.36;96652.94;4216302;28;5659;-64
2022/12/02 14:59:41;;;;;;;;;;;;;;;10.97;50.76;96652.94;4205834;28;6504;-71
2022/12/02 15:01:44;;;;;;;;;;;;;;;10.97;50.75;96652.94;4209822;28;6002;-64
2022/12/02 15:03:47;;;;;;;;;;;;;;;10.98;50.56;96649.28;4209826;28;5758;-66
2022/12/02 15:05:50;;;;;;;;;;;;;;;10.96;50.57;96653.94;4210356;28;5869;-67
2022/12/02 15:07:53;;;;;;;;;;;;;;;10.95;50.36;96657.63;4211495;28;5659;-65
2022/12/02 15:09:55;;;;;;;;;;;;;;;10.95;50.45;96648.88;4214481;28;5206;-65
2022/12/02 15:11:58;;;;;;;;;;;;;;;10.96;50.46;96651.31;4214691;28;7793;-66
2022/12/02 15:14:02;;;;;;;;;;;;;;;10.96;50.50;96646.00;4215385;28;5670;-65
2022/12/02 15:16:06;;;;;;;;;;;;;;;10.97;50.71;96658.22;4216111;28;5735;-65
2022/12/02 15:18:09;;;;;;;;;;;;;;;10.97;50.67;96654.75;4216627;28;5687;-65
2022/12/02 15:20:12;;;;;;;;;;;;;;;10.96;50.41;96645.19;4215926;28;5702;-64
2022/12/02 15:22:16;;;;;;;;;;;;;;;10.95;50.59;96651.50;4216369;28;5671;-64
2022/12/02 15:24:19;;;;;;;;;;;;;;;10.94;50.60;96650.69;4217098;28;7086;-64
2022/12/02 15:26:22;;;;;;;;;;;;;;;10.94;50.77;96650.69;4216895;28;5886;-64
2022/12/02 15:28:25;;;;;;;;;;;;;;;10.95;50.52;96654.97;4215837;28;5903;-64
2022/12/02 15:30:29;;;;;;;;;;;;;;;10.96;50.68;96651.31;4213324;28;5766;-65
2022/12/02 15:32:32;;;;;;;;;;;;;;;10.95;50.44;96644.38;4215737;28;5918;-65
2022/12/02 15:34:34;;;;;;;;;;;;;;;10.93;50.72;96638.50;4216744;28;5683;-65
2022/12/02 15:36:37;;;;;;;;;;;;;;;10.94;50.83;96642.75;4217835;28;5793;-65
2022/12/02 15:38:40;;;;;;;;;;;;;;;10.92;50.83;96649.28;4217478;28;5799;-65
2022/12/02 15:40:43;;;;;;;;;;;;;;;10.90;50.61;96641.53;4216594;28;5758;-65
2022/12/02 15:42:45;;;;;;;;;;;;;;;10.92;50.74;96649.28;4217386;28;5638;-65
2022/12/02 15:44:48;;;;;;;;;;;;;;;10.92;50.70;96650.09;4215574;28;5838;-65
2022/12/02 15:46:52;;;;;;;;;;;;;;;10.93;50.90;96645.59;4217187;28;5746;-65